createdAt,value
2023-09-12T00:02:01.140Z,1.80
2023-09-12T00:04:04.761Z,1.73
2023-09-12T00:06:07.441Z,2.08
2023-09-12T00:08:10.054Z,2.05
2023-09-12T00:10:13.036Z,2.15
2023-09-12T00:12:18.483Z,1.70
2023-09-12T00:16:23.413Z,1.45
2023-09-12T00:18:27.059Z,1.52
2023-09-12T00:20:29.707Z,1.58
2023-09-12T00:22:32.510Z,1.50
2023-09-12T00:24:35.177Z,2.42
2023-09-12T00:26:37.672Z,1.35
2023-09-12T00:28:40.596Z,1.40
2023-09-12T00:30:43.532Z,1.38
2023-09-12T00:32:48.494Z,1.42
2023-09-12T00:34:51.098Z,1.27
2023-09-12T00:36:53.606Z,1.27
2023-09-12T00:38:56.179Z,2.35
2023-09-12T00:40:58.712Z,2.95
2023-09-12T00:43:01.529Z,4.65
2023-09-12T00:45:04.157Z,7.10
2023-09-12T00:47:07.945Z,5.78
2023-09-12T00:49:12.101Z,6.25
2023-09-12T00:51:17.428Z,5.63
2023-09-12T00:53:22.032Z,5.95
2023-09-12T00:55:24.973Z,5.22
2023-09-12T00:57:28.359Z,4.25
2023-09-12T00:59:31.681Z,5.50
2023-09-12T01:01:45.985Z,5.97
2023-09-12T01:03:48.923Z,4.95
2023-09-12T01:05:53.072Z,5.70
2023-09-12T01:07:58.273Z,5.65
2023-09-12T01:10:04.025Z,5.50
2023-09-12T01:12:07.504Z,6.47
2023-09-12T01:14:13.651Z,4.78
2023-09-12T01:16:16.197Z,6.25
2023-09-12T01:18:19.015Z,6.43
2023-09-12T01:20:27.640Z,6.85
2023-09-12T01:22:44.923Z,8.10
2023-09-12T01:24:59.307Z,6.60
2023-09-12T01:27:35.363Z,8.00
2023-09-12T01:29:39.986Z,6.90
2023-09-12T01:31:44.051Z,7.35
2023-09-12T01:33:46.682Z,7.82
2023-09-12T01:35:49.330Z,8.63
2023-09-12T01:37:53.739Z,7.60
2023-09-12T01:39:56.901Z,7.53
2023-09-12T01:42:01.458Z,5.72
2023-09-12T01:44:06.168Z,5.95
2023-09-12T01:46:09.937Z,5.47
2023-09-12T01:48:14.340Z,6.43
2023-09-12T01:50:18.607Z,6.13
2023-09-12T01:52:21.795Z,5.78
2023-09-12T01:54:25.176Z,7.43
2023-09-12T01:56:27.981Z,4.80
2023-09-12T01:58:33.281Z,4.10
2023-09-12T02:00:36.649Z,4.32
2023-09-12T02:02:39.386Z,4.70
2023-09-12T02:04:41.940Z,4.32
2023-09-12T02:06:44.445Z,3.83
2023-09-12T02:08:46.921Z,3.67
2023-09-12T02:10:51.106Z,4.13
2023-09-12T02:12:53.572Z,3.75
2023-09-12T02:14:56.182Z,3.10
2023-09-12T02:16:58.969Z,3.67
2023-09-12T02:19:01.589Z,2.45
2023-09-12T02:21:04.318Z,2.10
2023-09-12T02:23:07.081Z,2.67
2023-09-12T02:25:10.042Z,2.95
2023-09-12T02:27:12.688Z,2.65
2023-09-12T02:29:15.156Z,1.58
2023-09-12T02:31:17.690Z,2.65
2023-09-12T02:33:20.439Z,2.97
2023-09-12T02:35:22.970Z,3.25
2023-09-12T02:37:25.515Z,2.58
2023-09-12T02:39:28.386Z,2.75
2023-09-12T02:41:30.896Z,2.85
2023-09-12T02:43:33.993Z,2.47
2023-09-12T02:45:36.614Z,2.83
2023-09-12T02:47:39.284Z,2.97
2023-09-12T02:49:41.849Z,2.95
2023-09-12T02:51:44.512Z,2.72
2023-09-12T02:53:47.014Z,2.50
2023-09-12T02:55:49.549Z,2.10
2023-09-12T02:57:53.356Z,1.85
2023-09-12T02:59:55.836Z,2.15
2023-09-12T03:01:58.468Z,3.65
2023-09-12T03:04:02.080Z,2.05
2023-09-12T03:06:05.462Z,2.28
2023-09-12T03:08:08.006Z,2.53
2023-09-12T03:10:10.792Z,2.00
2023-09-12T03:12:13.356Z,3.20
2023-09-12T03:14:15.945Z,2.28
2023-09-12T03:16:18.455Z,2.78
2023-09-12T03:18:21.274Z,2.45
2023-09-12T03:20:23.826Z,2.78
2023-09-12T03:22:26.388Z,2.33
2023-09-12T03:24:30.553Z,1.08
2023-09-12T03:26:35.617Z,2.25
2023-09-12T03:28:41.380Z,2.15
2023-09-12T03:30:44.069Z,1.73
2023-09-12T03:32:47.052Z,1.90
2023-09-12T03:34:49.646Z,3.00
2023-09-12T03:36:52.242Z,2.83
2023-09-12T03:38:54.765Z,2.38
2023-09-12T03:40:57.347Z,2.95
2023-09-12T03:43:00.309Z,2.13
2023-09-12T03:45:02.827Z,2.65
2023-09-12T03:47:05.663Z,2.88
2023-09-12T03:49:08.415Z,2.63
2023-09-12T03:51:10.975Z,3.00
2023-09-12T03:53:15.156Z,2.55
2023-09-12T03:55:18.002Z,2.83
2023-09-12T03:57:20.919Z,4.25
2023-09-12T03:59:23.541Z,3.15
2023-09-12T04:01:26.070Z,3.17
2023-09-12T04:03:28.611Z,2.70
2023-09-12T04:05:31.304Z,2.65
2023-09-12T04:07:33.825Z,2.67
2023-09-12T04:09:36.359Z,2.65
2023-09-12T04:11:46.349Z,2.33
2023-09-12T04:13:50.020Z,2.80
2023-09-12T04:15:52.691Z,2.70
2023-09-12T04:17:55.435Z,2.78
2023-09-12T04:19:57.961Z,2.88
2023-09-12T04:22:01.467Z,2.55
2023-09-12T04:24:04.089Z,2.20
2023-09-12T04:26:06.598Z,2.30
2023-09-12T04:28:09.164Z,2.13
2023-09-12T04:30:12.139Z,2.22
2023-09-12T04:32:14.648Z,2.53
2023-09-12T04:34:17.141Z,3.00
2023-09-12T04:36:20.070Z,2.38
2023-09-12T04:38:25.488Z,2.33
2023-09-12T04:40:28.708Z,2.92
2023-09-12T04:42:32.269Z,2.38
2023-09-12T04:44:38.739Z,2.70
2023-09-12T04:46:43.310Z,2.10
2023-09-12T04:50:49.868Z,2.28
2023-09-12T04:52:52.382Z,2.50
2023-09-12T04:54:54.935Z,2.58
2023-09-12T04:56:57.483Z,2.50
2023-09-12T04:59:00.054Z,3.08
2023-09-12T05:01:02.666Z,2.55
2023-09-12T05:03:05.823Z,2.42
2023-09-12T05:05:08.720Z,2.25
2023-09-12T05:07:11.593Z,2.70
2023-09-12T05:09:14.163Z,2.65
2023-09-12T05:11:17.098Z,2.70
2023-09-12T05:13:19.639Z,2.72
2023-09-12T05:15:22.195Z,1.92
2023-09-12T05:17:25.209Z,2.45
2023-09-12T05:19:28.136Z,2.35
2023-09-12T05:21:30.655Z,2.35
2023-09-12T05:23:33.554Z,1.05
2023-09-12T05:25:36.067Z,2.70
2023-09-12T05:27:38.684Z,2.70
2023-09-12T05:29:41.248Z,1.98
2023-09-12T05:31:43.898Z,2.55
2023-09-12T05:33:46.594Z,2.47
2023-09-12T05:35:49.188Z,1.90
2023-09-12T05:37:53.053Z,2.35
2023-09-12T05:39:55.538Z,2.88
2023-09-12T05:41:58.027Z,2.15
2023-09-12T05:44:00.595Z,2.38
2023-09-12T05:46:04.107Z,2.53
2023-09-12T05:48:06.780Z,2.13
2023-09-12T05:50:09.578Z,2.13
2023-09-12T05:52:12.670Z,2.17
2023-09-12T05:54:16.169Z,2.95
2023-09-12T05:56:19.109Z,2.00
2023-09-12T05:58:21.620Z,1.85
2023-09-12T06:00:24.231Z,1.83
2023-09-12T06:02:26.957Z,2.17
2023-09-12T06:04:29.607Z,2.22
2023-09-12T06:06:32.384Z,0.70
2023-09-12T06:08:35.000Z,2.03
2023-09-12T06:10:37.478Z,2.10
2023-09-12T06:12:40.051Z,1.85
2023-09-12T06:14:42.654Z,2.03
2023-09-12T06:16:45.337Z,1.92
2023-09-12T06:18:49.977Z,2.28
2023-09-12T06:20:53.850Z,2.10
2023-09-12T06:22:56.325Z,1.00
2023-09-12T06:24:58.852Z,1.85
2023-09-12T06:27:01.431Z,2.10
2023-09-12T06:29:04.290Z,2.38
2023-09-12T06:31:11.112Z,2.38
2023-09-12T06:33:13.773Z,2.60
2023-09-12T06:35:16.348Z,1.02
2023-09-12T06:37:20.006Z,1.80
2023-09-12T06:39:22.536Z,2.22
2023-09-12T06:41:25.427Z,2.35
2023-09-12T06:43:27.955Z,1.98
2023-09-12T06:45:32.253Z,2.33
2023-09-12T06:47:34.847Z,2.05
2023-09-12T06:49:39.142Z,2.45
2023-09-12T06:51:41.775Z,1.80
2023-09-12T06:53:45.058Z,1.83
2023-09-12T06:55:47.832Z,2.10
2023-09-12T06:57:50.445Z,1.90
2023-09-12T06:59:53.075Z,2.25
2023-09-12T07:01:55.662Z,0.95
2023-09-12T07:03:58.420Z,1.85
2023-09-12T07:06:01.340Z,1.70
2023-09-12T07:08:03.969Z,1.83
2023-09-12T07:10:22.483Z,1.90
2023-09-12T07:12:30.634Z,1.83
2023-09-12T07:14:33.215Z,3.50
2023-09-12T07:16:35.761Z,2.03
2023-09-12T07:18:38.474Z,2.03
2023-09-12T07:20:41.077Z,2.08
2023-09-12T07:22:43.684Z,1.98
2023-09-12T07:24:46.221Z,1.65
2023-09-12T07:26:48.739Z,2.28
2023-09-12T07:28:52.111Z,1.85
2023-09-12T07:30:58.726Z,3.35
2023-09-12T07:33:01.377Z,2.28
2023-09-12T07:35:04.317Z,1.98
2023-09-12T07:37:06.798Z,2.72
2023-09-12T07:39:09.479Z,2.28
2023-09-12T07:41:12.052Z,2.60
2023-09-12T07:43:14.608Z,2.20
2023-09-12T07:45:17.237Z,2.20
2023-09-12T07:47:20.674Z,2.50
2023-09-12T07:49:23.264Z,2.40
2023-09-12T07:51:26.069Z,2.33
2023-09-12T07:53:28.590Z,2.00
2023-09-12T07:55:34.761Z,1.67
2023-09-12T07:57:38.179Z,1.88
2023-09-12T07:59:40.717Z,1.85
2023-09-12T08:01:43.231Z,2.08
2023-09-12T08:03:46.070Z,1.98
2023-09-12T08:05:59.201Z,2.03
2023-09-12T08:08:02.366Z,2.20
2023-09-12T08:10:05.513Z,1.13
2023-09-12T08:12:08.347Z,2.03
2023-09-12T08:14:10.826Z,2.50
2023-09-12T08:16:13.428Z,1.50
2023-09-12T08:18:16.767Z,2.00
2023-09-12T08:20:20.397Z,2.38
2023-09-12T08:22:22.996Z,2.85
2023-09-12T08:24:25.600Z,2.67
2023-09-12T08:26:29.582Z,1.70
2023-09-12T08:28:32.869Z,2.22
2023-09-12T08:30:35.466Z,2.60
2023-09-12T08:32:38.056Z,1.35
2023-09-12T08:34:40.566Z,2.72
2023-09-12T08:36:43.102Z,3.00
2023-09-12T08:38:45.652Z,1.95
2023-09-12T08:40:52.429Z,3.03
2023-09-12T08:42:55.803Z,2.55
2023-09-12T08:44:58.413Z,2.05
2023-09-12T08:47:02.447Z,2.35
2023-09-12T08:49:07.910Z,2.38
2023-09-12T08:51:14.052Z,2.05
2023-09-12T08:53:16.928Z,2.33
2023-09-12T08:55:19.792Z,2.85
2023-09-12T08:57:23.528Z,2.00
2023-09-12T08:59:28.219Z,2.75
2023-09-12T09:01:32.963Z,2.67
2023-09-12T09:03:36.915Z,3.17
2023-09-12T09:05:43.805Z,2.70
2023-09-12T09:07:46.436Z,2.45
2023-09-12T09:09:53.183Z,2.28
2023-09-12T09:11:55.970Z,2.85
2023-09-12T09:13:58.547Z,2.75
2023-09-12T09:16:16.840Z,2.38
2023-09-12T09:20:38.737Z,2.38
2023-09-12T09:22:57.399Z,2.53
2023-09-12T09:25:14.138Z,2.53
2023-09-12T09:27:35.541Z,2.30
2023-09-12T09:29:49.706Z,2.47
2023-09-12T09:31:53.540Z,2.85
2023-09-12T09:33:57.549Z,2.80
2023-09-12T09:36:08.117Z,1.83
2023-09-12T09:38:10.845Z,2.30
2023-09-12T09:40:13.594Z,1.88
2023-09-12T09:42:16.465Z,2.45
2023-09-12T09:44:19.480Z,2.50
2023-09-12T09:46:22.430Z,3.08
2023-09-12T09:48:28.669Z,1.95
2023-09-12T09:50:31.182Z,2.03
2023-09-12T09:52:33.695Z,2.50
2023-09-12T09:54:36.257Z,2.10
2023-09-12T09:56:55.466Z,1.27
2023-09-12T09:58:58.976Z,2.05
2023-09-12T10:01:03.116Z,2.70
2023-09-12T10:03:12.385Z,2.17
2023-09-12T10:05:16.024Z,2.35
2023-09-12T10:07:19.267Z,2.17
2023-09-12T10:09:27.809Z,1.52
2023-09-12T10:11:35.059Z,1.95
2023-09-12T10:13:39.469Z,2.08
2023-09-12T10:15:44.964Z,1.90
2023-09-12T10:17:52.848Z,2.35
2023-09-12T10:20:06.005Z,2.33
2023-09-12T10:22:20.540Z,2.38
2023-09-12T10:24:24.820Z,2.60
2023-09-12T10:26:27.525Z,2.53
2023-09-12T10:28:30.374Z,2.00
2023-09-12T10:30:34.135Z,2.05
2023-09-12T10:32:37.200Z,1.77
2023-09-12T10:34:41.578Z,1.98
2023-09-12T10:36:45.545Z,2.45
2023-09-12T10:38:50.247Z,2.22
2023-09-12T10:40:54.613Z,2.65
2023-09-12T10:42:59.068Z,2.30
2023-09-12T10:45:03.374Z,2.08
2023-09-12T10:47:07.041Z,2.25
2023-09-12T10:49:13.472Z,2.70
2023-09-12T10:51:18.474Z,1.35
2023-09-12T10:53:25.927Z,2.72
2023-09-12T10:55:29.001Z,1.42
2023-09-12T10:57:31.587Z,2.72
2023-09-12T10:59:37.101Z,1.83
2023-09-12T11:01:41.850Z,1.73
2023-09-12T11:03:45.289Z,2.45
2023-09-12T11:05:56.278Z,2.05
2023-09-12T11:08:00.255Z,2.40
2023-09-12T11:10:18.898Z,2.30
2023-09-12T11:12:37.265Z,2.35
2023-09-12T11:15:10.138Z,2.13
2023-09-12T11:17:12.920Z,2.22
2023-09-12T11:19:24.655Z,2.25
2023-09-12T11:21:36.398Z,2.70
2023-09-12T11:25:45.242Z,2.55
2023-09-12T11:28:05.748Z,3.00
2023-09-12T11:30:08.742Z,2.78
2023-09-12T11:32:11.565Z,2.20
2023-09-12T11:34:16.494Z,3.05
2023-09-12T11:36:21.300Z,2.33
2023-09-12T11:38:31.669Z,3.05
2023-09-12T11:40:34.125Z,2.50
2023-09-12T11:42:41.806Z,2.85
2023-09-12T11:44:46.363Z,3.47
2023-09-12T11:46:52.440Z,3.10
2023-09-12T11:48:55.168Z,2.45
2023-09-12T11:50:58.617Z,2.78
2023-09-12T11:53:12.170Z,2.58
2023-09-12T11:55:24.254Z,3.58
2023-09-12T11:59:29.126Z,2.90
2023-09-12T12:01:32.194Z,3.50
2023-09-12T12:03:35.367Z,2.65
2023-09-12T12:05:39.443Z,2.88
2023-09-12T12:07:44.315Z,3.67
2023-09-12T12:09:46.924Z,3.15
2023-09-12T12:11:49.682Z,2.72
2023-09-12T12:13:53.182Z,3.88
2023-09-12T12:15:55.780Z,3.65
2023-09-12T12:17:58.810Z,3.88
2023-09-12T12:20:02.104Z,3.60
2023-09-12T12:22:09.379Z,3.67
2023-09-12T12:24:17.749Z,3.70
2023-09-12T12:26:21.019Z,4.10
2023-09-12T12:28:23.776Z,4.57
2023-09-12T12:30:26.354Z,4.15
2023-09-12T12:32:28.906Z,2.78
2023-09-12T12:35:41.300Z,3.95
2023-09-12T12:36:58.397Z,4.38
2023-09-12T12:39:01.969Z,3.83
2023-09-12T12:41:04.620Z,3.70
2023-09-12T12:43:07.814Z,3.70
2023-09-12T12:45:15.320Z,4.35
2023-09-12T12:47:17.944Z,4.07
2023-09-12T12:49:22.116Z,3.83
2023-09-12T12:51:26.922Z,4.18
2023-09-12T12:53:52.072Z,4.15
2023-09-12T12:55:56.494Z,4.03
2023-09-12T12:57:59.128Z,3.50
2023-09-12T13:00:02.331Z,3.47
2023-09-12T13:02:05.258Z,3.88
2023-09-12T13:04:11.512Z,2.38
2023-09-12T13:06:18.589Z,4.75
2023-09-12T13:08:21.182Z,4.28
2023-09-12T13:10:25.044Z,3.90
2023-09-12T13:12:27.599Z,4.15
2023-09-12T13:14:32.591Z,3.75
2023-09-12T13:16:35.933Z,3.80
2023-09-12T13:18:39.612Z,4.30
2023-09-12T13:20:42.212Z,3.95
2023-09-12T13:22:44.967Z,4.32
2023-09-12T13:24:48.304Z,4.43
2023-09-12T13:26:50.980Z,4.65
2023-09-12T13:28:53.531Z,4.22
2023-09-12T13:30:56.424Z,4.70
2023-09-12T13:32:59.149Z,4.85
2023-09-12T13:35:01.715Z,3.30
2023-09-12T13:37:12.047Z,4.00
2023-09-12T13:39:15.940Z,4.57
2023-09-12T13:41:18.503Z,4.78
2023-09-12T13:43:21.568Z,5.45
2023-09-12T13:45:24.198Z,5.03
2023-09-12T13:47:27.424Z,5.35
2023-09-12T13:49:29.903Z,5.88
2023-09-12T13:51:32.533Z,6.45
2023-09-12T13:53:35.276Z,6.15
2023-09-12T13:55:41.808Z,5.50
2023-09-12T13:58:00.723Z,6.22
2023-09-12T14:00:03.545Z,6.43
2023-09-12T14:02:06.806Z,6.35
2023-09-12T14:04:09.744Z,7.75
2023-09-12T14:06:12.671Z,7.90
2023-09-12T14:08:15.370Z,7.13
2023-09-12T14:10:31.151Z,7.10
2023-09-12T14:12:38.435Z,6.60
2023-09-12T14:14:42.615Z,8.43
2023-09-12T14:16:49.007Z,7.78
2023-09-12T14:18:52.435Z,7.15
2023-09-12T14:20:56.758Z,8.18
2023-09-12T14:23:00.288Z,8.48
2023-09-12T14:25:03.530Z,7.57
2023-09-12T14:29:09.938Z,7.93
2023-09-12T14:31:15.784Z,7.95
2023-09-12T14:33:20.140Z,8.93
2023-09-12T14:35:22.669Z,8.25
2023-09-12T14:37:28.849Z,8.45
2023-09-12T14:39:31.370Z,8.13
2023-09-12T14:41:34.124Z,8.70
2023-09-12T14:43:36.642Z,7.80
2023-09-12T14:45:40.011Z,9.00
2023-09-12T14:47:42.937Z,7.82
2023-09-12T14:49:50.212Z,8.18
2023-09-12T14:51:54.117Z,8.07
2023-09-12T14:53:56.661Z,7.70
2023-09-12T14:55:59.162Z,7.50
2023-09-12T14:58:01.731Z,7.75
2023-09-12T15:00:05.004Z,6.18
2023-09-12T15:02:07.643Z,6.55
2023-09-12T15:04:10.616Z,7.90
2023-09-12T15:06:13.316Z,6.82
2023-09-12T15:08:15.819Z,7.82
2023-09-12T15:10:19.455Z,5.90
2023-09-12T15:12:21.956Z,7.40
2023-09-12T15:14:24.604Z,7.53
2023-09-12T15:16:27.710Z,6.55
2023-09-12T15:18:30.486Z,9.02
2023-09-12T15:20:34.014Z,6.03
2023-09-12T15:22:36.604Z,7.70
2023-09-12T15:24:39.169Z,7.10
2023-09-12T15:26:42.236Z,7.57
2023-09-12T15:28:44.786Z,6.03
2023-09-12T15:30:47.535Z,5.78
2023-09-12T15:32:50.082Z,5.43
2023-09-12T15:34:52.699Z,5.05
2023-09-12T15:37:21.522Z,4.82
2023-09-12T15:39:25.347Z,5.43
2023-09-12T15:41:27.910Z,5.20
2023-09-12T15:43:30.886Z,5.07
2023-09-12T15:45:48.243Z,5.13
2023-09-12T15:47:53.025Z,5.55
2023-09-12T15:49:55.710Z,4.85
2023-09-12T15:51:58.856Z,5.57
2023-09-12T15:54:01.438Z,5.18
2023-09-12T15:56:04.008Z,4.93
2023-09-12T15:58:06.600Z,4.10
2023-09-12T16:00:12.441Z,4.70
2023-09-12T16:02:15.139Z,4.45
2023-09-12T16:04:17.743Z,4.80
2023-09-12T16:06:20.392Z,6.30
2023-09-12T16:08:22.908Z,5.25
2023-09-12T16:10:25.480Z,4.88
2023-09-12T16:12:28.893Z,4.90
2023-09-12T16:14:31.762Z,5.30
2023-09-12T16:16:34.325Z,5.30
2023-09-12T16:18:39.363Z,5.28
2023-09-12T16:20:42.077Z,5.43
2023-09-12T16:22:44.649Z,4.88
2023-09-12T16:24:47.376Z,5.45
2023-09-12T16:26:49.961Z,5.57
2023-09-12T16:28:53.162Z,5.07
2023-09-12T16:30:56.153Z,5.15
2023-09-12T16:32:58.893Z,5.13
2023-09-12T16:35:02.368Z,3.88
2023-09-12T16:37:05.223Z,4.18
2023-09-12T16:39:08.463Z,4.55
2023-09-12T16:41:10.993Z,2.65
2023-09-12T16:43:13.518Z,3.72
2023-09-12T16:45:16.108Z,3.00
2023-09-12T16:47:19.324Z,3.40
2023-09-12T16:49:21.890Z,2.80
2023-09-12T16:51:24.503Z,3.72
2023-09-12T16:53:27.019Z,3.58
2023-09-12T16:55:29.543Z,3.20
2023-09-12T16:57:32.105Z,3.28
2023-09-12T16:59:34.657Z,2.72
2023-09-12T17:01:37.218Z,4.05
2023-09-12T17:03:40.258Z,3.08
2023-09-12T17:05:42.976Z,3.35
2023-09-12T17:07:45.598Z,3.50
2023-09-12T17:09:48.217Z,4.70
2023-09-12T17:11:50.782Z,3.13
2023-09-12T17:13:53.618Z,3.90
2023-09-12T17:15:57.375Z,3.78
2023-09-12T17:18:00.217Z,2.58
2023-09-12T17:20:02.930Z,3.72
2023-09-12T17:22:05.717Z,3.45
2023-09-12T17:24:08.514Z,4.40
2023-09-12T17:26:11.099Z,4.65
2023-09-12T17:28:13.688Z,3.58
2023-09-12T17:30:17.714Z,3.92
2023-09-12T17:32:20.221Z,2.92
2023-09-12T17:34:46.297Z,3.58
2023-09-12T17:36:48.857Z,3.72
2023-09-12T17:38:51.375Z,3.60
2023-09-12T17:40:53.900Z,3.08
2023-09-12T17:43:00.237Z,3.35
2023-09-12T17:45:03.259Z,2.67
2023-09-12T17:47:06.073Z,2.88
2023-09-12T17:49:08.780Z,3.03
2023-09-12T17:51:11.444Z,3.10
2023-09-12T17:53:14.052Z,3.17
2023-09-12T17:55:18.394Z,3.70
2023-09-12T17:57:20.921Z,3.28
2023-09-12T17:59:24.528Z,3.75
2023-09-12T18:01:27.472Z,3.55
2023-09-12T18:03:32.422Z,3.22
2023-09-12T18:05:35.581Z,3.35
2023-09-12T18:07:38.093Z,3.53
2023-09-12T18:09:40.727Z,3.42
2023-09-12T18:11:43.378Z,2.70
2023-09-12T18:13:49.497Z,3.42
2023-09-12T18:15:52.190Z,2.72
2023-09-12T18:17:55.248Z,2.88
2023-09-12T18:19:58.262Z,2.92
2023-09-12T18:22:00.757Z,2.92
2023-09-12T18:24:03.784Z,3.03
2023-09-12T18:26:06.598Z,2.78
2023-09-12T18:28:09.155Z,3.95
2023-09-12T18:30:12.051Z,2.95
2023-09-12T18:32:14.522Z,3.08
2023-09-12T18:34:19.851Z,2.95
2023-09-12T18:36:23.752Z,4.25
2023-09-12T18:38:26.249Z,3.80
2023-09-12T18:40:30.009Z,3.63
2023-09-12T18:42:32.553Z,3.97
2023-09-12T18:44:35.026Z,3.33
2023-09-12T18:46:37.763Z,2.72
2023-09-12T18:48:41.812Z,3.13
2023-09-12T18:50:45.202Z,2.85
2023-09-12T18:52:55.345Z,2.67
2023-09-12T18:54:58.912Z,3.08
2023-09-12T18:57:09.600Z,3.58
2023-09-12T18:59:12.097Z,3.45
2023-09-12T19:01:16.402Z,3.15
2023-09-12T19:03:19.120Z,3.13
2023-09-12T19:05:21.893Z,2.97
2023-09-12T19:07:24.563Z,4.15
2023-09-12T19:09:27.602Z,3.17
2023-09-12T19:11:30.278Z,3.22
2023-09-12T19:13:32.903Z,2.38
2023-09-12T19:15:37.292Z,4.57
2023-09-12T19:17:41.061Z,2.92
2023-09-12T19:19:43.673Z,2.83
2023-09-12T19:21:47.130Z,3.70
2023-09-12T19:23:49.766Z,2.28
2023-09-12T19:25:52.301Z,2.63
2023-09-12T19:27:54.847Z,1.92
2023-09-12T19:29:57.948Z,3.38
2023-09-12T19:32:00.588Z,2.72
2023-09-12T19:34:04.965Z,7.28
2023-09-12T19:36:07.711Z,4.30
2023-09-12T19:38:10.949Z,3.47
2023-09-12T19:40:16.579Z,4.05
2023-09-12T19:42:19.771Z,3.90
2023-09-12T19:44:22.321Z,3.17
2023-09-12T19:46:25.291Z,5.65
2023-09-12T19:48:27.929Z,5.22
2023-09-12T19:50:33.381Z,5.60
2023-09-12T19:52:35.865Z,4.55
2023-09-12T19:54:38.467Z,4.22
2023-09-12T19:56:41.019Z,5.32
2023-09-12T19:58:43.546Z,4.18
2023-09-12T20:00:46.944Z,4.50
2023-09-12T20:02:50.775Z,4.65
2023-09-12T20:04:53.480Z,3.85
2023-09-12T20:06:56.571Z,3.42
2023-09-12T20:08:59.664Z,4.40
2023-09-12T20:11:07.637Z,3.00
2023-09-12T20:13:13.017Z,3.20
2023-09-12T20:15:15.591Z,3.25
2023-09-12T20:17:18.198Z,2.55
2023-09-12T20:19:21.130Z,3.17
2023-09-12T20:21:23.686Z,3.10
2023-09-12T20:23:27.214Z,3.42
2023-09-12T20:25:29.957Z,2.35
2023-09-12T20:27:32.568Z,3.05
2023-09-12T20:29:35.090Z,3.35
2023-09-12T20:31:37.681Z,2.30
2023-09-12T20:33:40.479Z,3.38
2023-09-12T20:35:43.285Z,2.72
2023-09-12T20:37:46.003Z,4.15
2023-09-12T20:39:50.130Z,2.90
2023-09-12T20:41:53.121Z,2.60
2023-09-12T20:43:55.985Z,3.15
2023-09-12T20:45:58.598Z,4.57
2023-09-12T20:48:01.305Z,2.85
2023-09-12T20:50:07.124Z,3.40
2023-09-12T20:52:09.743Z,3.08
2023-09-12T20:54:12.882Z,3.30
2023-09-12T20:56:15.596Z,2.33
2023-09-12T20:58:18.539Z,3.10
2023-09-12T21:00:24.352Z,2.65
2023-09-12T21:02:26.979Z,3.45
2023-09-12T21:04:29.727Z,3.30
2023-09-12T21:06:33.543Z,2.65
2023-09-12T21:08:36.324Z,3.92
2023-09-12T21:10:38.835Z,1.73
2023-09-12T21:12:41.350Z,2.85
2023-09-12T21:14:43.862Z,3.00
2023-09-12T21:16:46.533Z,3.50
2023-09-12T21:18:49.275Z,2.75
2023-09-12T21:20:54.704Z,2.22
2023-09-12T21:22:57.837Z,3.55
2023-09-12T21:25:00.639Z,2.95
2023-09-12T21:27:03.303Z,3.88
2023-09-12T21:29:05.862Z,3.63
2023-09-12T21:31:08.523Z,3.35
2023-09-12T21:33:11.102Z,3.50
2023-09-12T21:35:20.249Z,3.58
2023-09-12T21:37:23.054Z,3.20
2023-09-12T21:39:25.571Z,2.85
2023-09-12T21:41:28.080Z,3.13
2023-09-12T21:43:30.705Z,3.30
2023-09-12T21:45:33.293Z,3.22
2023-09-12T21:47:39.497Z,3.72
2023-09-12T21:49:42.008Z,3.70
2023-09-12T21:51:44.551Z,3.08
2023-09-12T21:53:47.163Z,3.28
2023-09-12T21:55:52.467Z,3.05
2023-09-12T21:57:54.959Z,2.83
2023-09-12T21:59:59.094Z,2.95
2023-09-12T22:02:01.715Z,2.15
2023-09-12T22:04:04.542Z,3.75
2023-09-12T22:06:08.009Z,3.40
2023-09-12T22:08:10.723Z,3.28
2023-09-12T22:10:13.843Z,3.08
2023-09-12T22:12:16.794Z,3.22
2023-09-12T22:14:19.282Z,2.03
2023-09-12T22:16:21.909Z,3.00
2023-09-12T22:18:26.624Z,3.08
2023-09-12T22:20:29.585Z,3.50
2023-09-12T22:22:32.509Z,3.38
2023-09-12T22:24:35.055Z,2.80
2023-09-12T22:26:37.591Z,2.55
2023-09-12T22:28:40.924Z,3.22
2023-09-12T22:30:43.694Z,3.20
2023-09-12T22:32:46.282Z,3.15
2023-09-12T22:34:48.773Z,3.58
2023-09-12T22:36:51.311Z,2.95
2023-09-12T22:38:53.810Z,3.85
2023-09-12T22:40:56.316Z,3.05
2023-09-12T22:42:58.895Z,3.25
2023-09-12T22:45:01.400Z,3.20
2023-09-12T22:47:04.013Z,2.97
2023-09-12T22:49:06.779Z,2.95
2023-09-12T22:51:09.296Z,3.35
2023-09-12T22:53:12.168Z,2.83
2023-09-12T22:55:14.809Z,3.47
2023-09-12T22:57:17.341Z,3.55
2023-09-12T22:59:19.910Z,3.40
2023-09-12T23:01:22.466Z,4.47
2023-09-12T23:03:25.332Z,2.90
2023-09-12T23:05:27.808Z,3.38
2023-09-12T23:07:30.388Z,2.60
2023-09-12T23:09:33.019Z,1.90
2023-09-12T23:11:35.508Z,3.35
2023-09-12T23:13:38.061Z,2.83
2023-09-12T23:15:41.148Z,2.63
2023-09-12T23:17:44.025Z,3.05
2023-09-12T23:19:46.627Z,3.30
2023-09-12T23:21:51.404Z,2.60
2023-09-12T23:23:54.468Z,2.88
2023-09-12T23:25:57.237Z,3.10
2023-09-12T23:27:59.839Z,3.78
2023-09-12T23:30:02.937Z,3.40
2023-09-12T23:32:05.933Z,3.38
2023-09-12T23:34:10.092Z,3.10
2023-09-12T23:36:12.943Z,3.10
2023-09-12T23:38:15.725Z,3.10
2023-09-12T23:40:18.311Z,4.50
2023-09-12T23:42:23.746Z,2.20
2023-09-12T23:44:26.280Z,2.97
2023-09-12T23:46:28.991Z,3.50
2023-09-12T23:48:31.652Z,3.50
2023-09-12T23:50:34.237Z,3.30
2023-09-12T23:52:39.996Z,2.92
2023-09-12T23:54:42.804Z,3.40
2023-09-12T23:56:45.461Z,1.98
2023-09-12T23:58:47.963Z,3.17
